< < Back
Terminal Aerodrome Forecast


Current Version              Previous Versions:   1  2  3  4  5  6  7  8  9  

Terminal Aerodrome Forecast

202
FTUS42 KJAX 110532
TAFGNV
TAF
KGNV 110532Z 1106/1206 VRB03KT P6SM SKC
     FM111700 23009KT P6SM FEW250=



Latest METAR

234
SAUS70 KWBC 111700 RRA
MTRGNV
METAR KGNV 111653Z VRB06KT 10SM CLR 16/04 A3029 RMK AO2 SLP258
T01610044


USA.gov is the U.S. government's official web portal to all federal, state and local government web resources and services.